createdAt,value
2019-04-06T00:00:33.076Z,4.20
2019-04-06T00:02:59.543Z,4.20
2019-04-06T00:05:25.797Z,4.10
2019-04-06T00:07:52.016Z,4.10
2019-04-06T00:10:18.342Z,4.10
2019-04-06T00:12:44.608Z,4.00
2019-04-06T00:15:11.018Z,3.90
2019-04-06T00:17:37.393Z,3.80
2019-04-06T00:20:04.854Z,3.80
2019-04-06T00:22:31.123Z,3.70
2019-04-06T00:24:57.561Z,3.70
2019-04-06T00:27:24.733Z,3.70
2019-04-06T00:29:51.062Z,3.70
2019-04-06T00:32:28.338Z,3.60
2019-04-06T00:34:54.567Z,3.60
2019-04-06T00:37:20.687Z,3.60
2019-04-06T00:39:46.921Z,3.60
2019-04-06T00:42:13.155Z,3.60
2019-04-06T00:44:39.373Z,3.50
2019-04-06T00:47:05.582Z,3.30
2019-04-06T00:49:31.733Z,3.30
2019-04-06T00:51:57.965Z,3.30
2019-04-06T00:54:24.197Z,3.30
2019-04-06T00:56:50.356Z,3.30
2019-04-06T00:59:16.728Z,3.20
2019-04-06T01:01:43.033Z,3.10
2019-04-06T01:04:09.296Z,3.10
2019-04-06T01:06:35.744Z,3.00
2019-04-06T01:09:04.541Z,2.90
2019-04-06T01:11:30.775Z,2.90
2019-04-06T01:13:57.103Z,3.00
2019-04-06T01:16:23.370Z,2.90
2019-04-06T01:18:49.630Z,2.80
2019-04-06T01:21:16.009Z,2.80
2019-04-06T01:23:42.347Z,2.80
2019-04-06T01:26:08.908Z,2.80
2019-04-06T01:28:35.177Z,2.70
2019-04-06T01:31:01.485Z,2.60
2019-04-06T01:33:27.803Z,2.50
2019-04-06T01:35:54.001Z,2.60
2019-04-06T01:38:20.460Z,2.40
2019-04-06T01:40:46.839Z,2.30
2019-04-06T01:43:12.977Z,2.30
2019-04-06T01:45:39.210Z,2.30
2019-04-06T01:48:05.562Z,2.30
2019-04-06T01:50:31.743Z,2.30
2019-04-06T01:52:58.004Z,2.20
2019-04-06T01:55:24.151Z,2.20
2019-04-06T01:57:50.426Z,2.10
2019-04-06T02:00:16.772Z,2.10
2019-04-06T02:02:47.770Z,2.00
2019-04-06T02:05:14.216Z,2.00
2019-04-06T02:07:40.346Z,2.00
2019-04-06T02:10:06.990Z,2.00
2019-04-06T02:12:33.186Z,2.00
2019-04-06T02:14:59.335Z,2.00
2019-04-06T02:17:25.580Z,2.00
2019-04-06T02:19:51.699Z,2.00
2019-04-06T02:22:17.931Z,1.90
2019-04-06T02:24:44.070Z,1.90
2019-04-06T02:27:10.459Z,1.90
2019-04-06T02:29:36.669Z,1.90
2019-04-06T02:32:07.433Z,1.80
2019-04-06T02:34:53.823Z,1.80
2019-04-06T02:37:28.046Z,1.80
2019-04-06T02:40:07.839Z,1.70
2019-04-06T02:42:47.488Z,1.70
2019-04-06T02:45:13.997Z,1.70
2019-04-06T02:47:40.345Z,1.70
2019-04-06T02:50:07.066Z,1.50
2019-04-06T02:52:33.199Z,1.50
2019-04-06T02:54:59.433Z,1.40
2019-04-06T02:57:25.799Z,1.30
2019-04-06T02:59:52.285Z,1.30
2019-04-06T03:02:18.503Z,1.30
2019-04-06T03:04:44.939Z,1.30
2019-04-06T03:07:11.075Z,1.30
2019-04-06T03:09:37.566Z,1.20
2019-04-06T03:12:04.022Z,1.20
2019-04-06T03:14:30.408Z,1.30
2019-04-06T03:16:56.657Z,1.20
2019-04-06T03:19:23.044Z,1.10
2019-04-06T03:21:49.411Z,1.10
2019-04-06T03:24:16.270Z,1.00
2019-04-06T03:26:42.484Z,1.00
2019-04-06T03:29:08.934Z,1.00
2019-04-06T03:31:35.395Z,1.00
2019-04-06T03:34:02.160Z,0.90
2019-04-06T03:36:28.364Z,1.00
2019-04-06T03:38:54.693Z,1.00
2019-04-06T03:41:21.169Z,1.00
2019-04-06T03:43:47.528Z,0.90
2019-04-06T03:46:13.862Z,0.90
2019-04-06T03:48:40.117Z,0.80
2019-04-06T03:51:06.526Z,0.80
2019-04-06T03:53:32.769Z,0.80
2019-04-06T03:55:59.094Z,0.80
2019-04-06T03:58:25.552Z,0.70
2019-04-06T04:00:54.031Z,0.70
2019-04-06T04:03:22.574Z,0.70
2019-04-06T04:05:52.509Z,0.70
2019-04-06T04:08:19.719Z,0.70
2019-04-06T04:10:47.650Z,0.70
2019-04-06T04:13:17.828Z,0.70
2019-04-06T04:15:44.440Z,0.70
2019-04-06T04:18:10.822Z,0.70
2019-04-06T04:20:37.471Z,0.70
2019-04-06T04:23:06.737Z,0.60
2019-04-06T04:25:33.105Z,0.60
2019-04-06T04:27:59.422Z,0.60
2019-04-06T04:30:33.068Z,0.50
2019-04-06T04:32:54.172Z,0.50
2019-04-06T04:35:23.002Z,0.40
2019-04-06T04:37:49.632Z,0.40
2019-04-06T04:40:16.707Z,0.50
2019-04-06T04:42:43.533Z,0.60
2019-04-06T04:45:10.215Z,0.50
2019-04-06T04:47:36.530Z,0.50
2019-04-06T04:50:03.592Z,0.50
2019-04-06T04:52:29.990Z,0.50
2019-04-06T04:54:56.315Z,0.40
2019-04-06T04:57:25.462Z,0.40
2019-04-06T04:59:51.887Z,0.30
2019-04-06T05:02:18.314Z,0.20
2019-04-06T05:04:44.559Z,0.20
2019-04-06T05:07:11.060Z,0.20
2019-04-06T05:09:37.216Z,0.10
2019-04-06T05:12:03.574Z,0.10
2019-04-06T05:14:54.819Z,0.10
2019-04-06T05:17:21.170Z,0.10
2019-04-06T05:19:47.393Z,0.00
2019-04-06T05:22:13.547Z,0.00
2019-04-06T05:24:39.788Z,0.10
2019-04-06T05:27:06.018Z,0.10
2019-04-06T05:29:36.681Z,0.10
2019-04-06T05:32:02.910Z,0.20
2019-04-06T05:34:29.262Z,0.20
2019-04-06T05:36:55.445Z,0.20
2019-04-06T05:39:21.589Z,0.30
2019-04-06T05:41:47.811Z,0.30
2019-04-06T05:44:14.184Z,0.40
2019-04-06T05:46:45.487Z,0.50
2019-04-06T05:49:18.089Z,0.50
2019-04-06T05:51:44.315Z,0.60
2019-04-06T05:54:18.140Z,0.60
2019-04-06T05:56:47.396Z,0.60
2019-04-06T05:59:15.205Z,0.60
2019-04-06T06:01:48.447Z,0.60
2019-04-06T06:04:13.043Z,0.60
2019-04-06T06:06:39.481Z,0.60
2019-04-06T06:09:14.493Z,0.70
2019-04-06T06:11:41.755Z,0.70
2019-04-06T06:14:12.309Z,0.70
2019-04-06T06:16:55.673Z,0.70
2019-04-06T06:19:16.386Z,0.80
2019-04-06T06:21:43.135Z,0.90
2019-04-06T06:24:09.628Z,0.90
2019-04-06T06:26:44.773Z,1.00
2019-04-06T06:29:28.254Z,1.10
2019-04-06T06:32:01.776Z,1.10
2019-04-06T06:34:28.174Z,1.20
2019-04-06T06:36:57.361Z,1.30
2019-04-06T06:39:30.399Z,1.40
2019-04-06T06:41:59.009Z,1.50
2019-04-06T06:44:31.577Z,1.60
2019-04-06T06:46:57.952Z,1.60
2019-04-06T06:49:24.558Z,1.60
2019-04-06T06:51:51.064Z,1.60
2019-04-06T06:54:19.389Z,1.60
2019-04-06T06:56:45.630Z,1.70
2019-04-06T06:59:11.941Z,1.70
2019-04-06T07:01:38.329Z,1.80
2019-04-06T07:04:04.785Z,1.80
2019-04-06T07:06:31.082Z,1.90
2019-04-06T07:08:57.496Z,2.00
2019-04-06T07:11:23.969Z,2.10
2019-04-06T07:13:50.315Z,2.20
2019-04-06T07:16:16.751Z,2.20
2019-04-06T07:18:48.280Z,2.40
2019-04-06T07:21:16.664Z,2.40
2019-04-06T07:23:45.485Z,2.50
2019-04-06T07:26:16.959Z,2.60
2019-04-06T07:28:43.155Z,2.80
2019-04-06T07:31:09.491Z,2.90
2019-04-06T07:33:51.559Z,3.30
2019-04-06T07:36:18.426Z,3.50
2019-04-06T07:38:53.444Z,3.80
2019-04-06T07:41:24.652Z,4.00
2019-04-06T07:43:50.929Z,4.20
2019-04-06T07:46:17.261Z,4.50
2019-04-06T07:48:43.582Z,4.70
2019-04-06T07:51:09.835Z,4.90
2019-04-06T07:53:36.183Z,5.00
2019-04-06T07:56:02.459Z,5.10
2019-04-06T07:58:28.681Z,5.20
2019-04-06T08:00:54.993Z,5.50
2019-04-06T08:03:21.589Z,5.60
2019-04-06T08:05:47.903Z,5.70
2019-04-06T08:08:14.132Z,5.80
2019-04-06T08:10:40.373Z,6.00
2019-04-06T08:13:06.714Z,6.10
2019-04-06T08:15:33.151Z,6.30
2019-04-06T08:17:59.406Z,6.50
2019-04-06T08:20:25.691Z,6.60
2019-04-06T08:22:52.020Z,6.70
2019-04-06T08:25:18.271Z,6.80
2019-04-06T08:27:44.555Z,7.00
2019-04-06T08:30:11.272Z,7.00
2019-04-06T08:32:37.440Z,7.20
2019-04-06T08:35:05.727Z,7.30
2019-04-06T08:37:32.190Z,7.40
2019-04-06T08:39:58.674Z,7.50
2019-04-06T08:42:25.004Z,7.60
2019-04-06T08:44:51.138Z,7.70
2019-04-06T08:47:17.406Z,7.80
2019-04-06T08:49:43.713Z,7.80
2019-04-06T08:52:11.623Z,7.90
2019-04-06T08:54:38.295Z,8.00
2019-04-06T08:57:04.681Z,8.20
2019-04-06T08:59:30.959Z,8.40
2019-04-06T09:01:57.315Z,8.50
2019-04-06T09:04:23.459Z,8.50
2019-04-06T09:06:49.732Z,8.40
2019-04-06T09:09:15.963Z,8.40
2019-04-06T09:11:42.091Z,8.40
2019-04-06T09:14:08.473Z,8.30
2019-04-06T09:16:34.695Z,8.20
2019-04-06T09:19:01.199Z,8.30
2019-04-06T09:21:27.527Z,8.30
2019-04-06T09:23:53.656Z,8.40
2019-04-06T09:26:19.956Z,8.30
2019-04-06T09:28:46.180Z,8.30
2019-04-06T09:31:12.408Z,8.40
2019-04-06T09:33:38.695Z,8.40
2019-04-06T09:36:05.185Z,8.50
2019-04-06T09:38:31.463Z,8.60
2019-04-06T09:40:57.751Z,8.70
2019-04-06T09:43:24.392Z,8.80
2019-04-06T09:46:04.202Z,8.90
2019-04-06T09:48:32.580Z,8.90
2019-04-06T09:51:00.701Z,8.90
2019-04-06T09:53:40.819Z,8.90
2019-04-06T09:56:11.904Z,9.10
2019-04-06T09:58:55.065Z,9.10
2019-04-06T10:01:40.073Z,9.20
2019-04-06T10:04:08.196Z,9.20
2019-04-06T10:06:42.538Z,9.30
2019-04-06T10:09:13.444Z,9.40
2019-04-06T10:11:42.315Z,9.40
2019-04-06T10:14:22.970Z,9.50
2019-04-06T10:17:09.257Z,9.60
2019-04-06T10:19:40.385Z,9.60
2019-04-06T10:22:08.574Z,9.80
2019-04-06T10:24:45.832Z,9.90
2019-04-06T10:27:14.059Z,10.20
2019-04-06T10:30:00.223Z,10.40
2019-04-06T10:32:31.579Z,10.70
2019-04-06T10:35:02.717Z,11.00
2019-04-06T10:37:33.879Z,11.10
2019-04-06T10:40:07.678Z,11.00
2019-04-06T10:42:35.748Z,10.90
2019-04-06T10:45:05.366Z,10.80
2019-04-06T10:47:33.586Z,10.90
2019-04-06T10:50:10.715Z,10.90
2019-04-06T10:52:41.471Z,10.90
2019-04-06T10:55:15.663Z,11.00
2019-04-06T10:57:49.587Z,11.00
2019-04-06T11:00:23.575Z,10.90
2019-04-06T11:02:54.638Z,10.90
2019-04-06T11:05:25.769Z,10.90
2019-04-06T11:08:00.029Z,10.90
2019-04-06T11:10:32.301Z,10.90
2019-04-06T11:13:09.825Z,10.80
2019-04-06T11:15:56.607Z,10.80
2019-04-06T11:18:43.526Z,10.80
2019-04-06T11:21:16.660Z,10.80
2019-04-06T11:23:51.009Z,10.80
2019-04-06T11:26:22.090Z,10.80
2019-04-06T11:28:56.306Z,10.90
2019-04-06T11:31:36.426Z,10.90
2019-04-06T11:34:17.122Z,10.90
2019-04-06T11:37:00.418Z,11.00
2019-04-06T11:39:34.515Z,11.00
2019-04-06T11:42:02.569Z,11.10
2019-04-06T11:44:33.927Z,11.10
2019-04-06T11:47:18.595Z,11.10
2019-04-06T11:49:46.735Z,11.20
2019-04-06T11:52:23.971Z,11.10
2019-04-06T11:54:58.229Z,11.10
2019-04-06T11:57:38.440Z,11.20
2019-04-06T12:00:27.166Z,11.20
2019-04-06T12:03:01.551Z,11.20
2019-04-06T12:05:44.804Z,11.30
2019-04-06T12:08:29.501Z,11.40
2019-04-06T12:11:14.238Z,11.50
2019-04-06T12:13:48.177Z,11.50
2019-04-06T12:16:25.011Z,11.50
2019-04-06T12:18:56.164Z,11.50
2019-04-06T12:21:39.503Z,11.60
2019-04-06T12:24:22.402Z,11.60
2019-04-06T12:26:53.436Z,11.60
2019-04-06T12:29:24.331Z,11.70
2019-04-06T12:31:52.351Z,11.80
2019-04-06T12:34:27.091Z,11.90
2019-04-06T12:37:02.640Z,12.00
2019-04-06T12:39:52.678Z,12.20
2019-04-06T12:42:24.967Z,12.30
2019-04-06T12:44:54.090Z,12.40
2019-04-06T12:47:37.443Z,12.50
2019-04-06T12:50:27.286Z,12.50
2019-04-06T12:53:00.362Z,12.60
2019-04-06T12:55:31.379Z,12.60
2019-04-06T12:58:07.384Z,12.50
2019-04-06T13:00:49.539Z,12.60
2019-04-06T13:03:17.574Z,12.70
2019-04-06T13:05:55.065Z,12.70
2019-04-06T13:08:25.873Z,12.80
2019-04-06T13:11:06.190Z,12.80
2019-04-06T13:13:43.333Z,12.90
2019-04-06T13:16:14.333Z,12.90
2019-04-06T13:18:42.492Z,12.90
2019-04-06T13:21:25.639Z,12.90
2019-04-06T13:24:00.098Z,13.00
2019-04-06T13:26:47.331Z,13.10
2019-04-06T13:29:15.655Z,13.20
2019-04-06T13:31:47.160Z,13.20
2019-04-06T13:34:33.663Z,13.30
2019-04-06T13:37:18.842Z,13.40
2019-04-06T13:39:50.016Z,13.30
2019-04-06T13:42:18.137Z,13.20
2019-04-06T13:45:01.745Z,13.10
2019-04-06T13:47:42.162Z,13.10
2019-04-06T13:50:10.993Z,13.10
2019-04-06T13:52:48.410Z,13.10
2019-04-06T13:55:22.439Z,13.30
2019-04-06T13:57:59.602Z,13.40
2019-04-06T14:00:42.759Z,13.60
2019-04-06T14:03:20.229Z,13.70
2019-04-06T14:06:03.966Z,13.70
2019-04-06T14:08:41.030Z,13.80
2019-04-06T14:11:09.357Z,13.80
2019-04-06T14:13:37.731Z,13.90
2019-04-06T14:16:09.355Z,13.80
2019-04-06T14:18:43.422Z,13.80
2019-04-06T14:21:17.245Z,13.90
2019-04-06T14:23:45.382Z,13.80
2019-04-06T14:26:20.065Z,13.90
2019-04-06T14:29:06.483Z,13.90
2019-04-06T14:31:46.883Z,13.80
2019-04-06T14:34:15.056Z,13.80
2019-04-06T14:36:52.190Z,13.80
2019-04-06T14:39:23.261Z,13.80
2019-04-06T14:42:09.879Z,13.70
2019-04-06T14:44:47.303Z,13.70
2019-04-06T14:47:31.957Z,13.70
2019-04-06T14:50:03.321Z,13.70
2019-04-06T14:52:31.540Z,13.80
2019-04-06T14:55:05.580Z,13.80
2019-04-06T14:57:48.935Z,13.70
2019-04-06T15:00:20.037Z,13.70
2019-04-06T15:02:57.172Z,13.70
2019-04-06T15:05:25.275Z,13.60
2019-04-06T15:08:11.714Z,13.60
2019-04-06T15:10:39.733Z,13.60
2019-04-06T15:13:26.523Z,13.60
2019-04-06T15:15:57.863Z,13.60
2019-04-06T15:18:40.934Z,13.60
2019-04-06T15:21:09.090Z,13.60
2019-04-06T15:23:37.402Z,13.70
2019-04-06T15:26:08.369Z,13.70
2019-04-06T15:28:42.327Z,13.70
2019-04-06T15:31:10.467Z,13.70
2019-04-06T15:33:57.118Z,13.70
2019-04-06T15:36:25.201Z,13.70
2019-04-06T15:39:10.268Z,13.60
2019-04-06T15:41:38.810Z,13.60
2019-04-06T15:44:22.043Z,13.60
2019-04-06T15:47:02.363Z,13.60
2019-04-06T15:49:39.654Z,13.60
2019-04-06T15:52:16.199Z,13.60
2019-04-06T15:54:49.911Z,13.60
2019-04-06T15:57:18.071Z,13.60
2019-04-06T15:59:46.644Z,13.60
2019-04-06T16:02:23.771Z,13.60
2019-04-06T16:05:00.859Z,13.60
2019-04-06T16:07:43.923Z,13.60
2019-04-06T16:10:17.800Z,13.60
2019-04-06T16:13:02.504Z,13.70
2019-04-06T16:15:44.481Z,13.70
2019-04-06T16:18:15.510Z,13.80
2019-04-06T16:20:44.097Z,13.80
2019-04-06T16:23:21.265Z,13.80
2019-04-06T16:25:49.709Z,13.90
2019-04-06T16:28:30.245Z,13.90
2019-04-06T16:30:58.332Z,13.90
2019-04-06T16:33:32.363Z,13.90
2019-04-06T16:36:17.313Z,13.90
2019-04-06T16:38:45.544Z,13.90
2019-04-06T16:41:19.419Z,13.80
2019-04-06T16:43:59.368Z,13.80
2019-04-06T16:46:27.879Z,13.80
2019-04-06T16:49:05.368Z,13.80
2019-04-06T16:51:39.487Z,13.80
2019-04-06T16:54:07.609Z,13.80
2019-04-06T16:56:38.467Z,13.80
2019-04-06T16:59:07.292Z,13.80
2019-04-06T17:01:35.363Z,13.80
2019-04-06T17:04:12.533Z,13.70
2019-04-06T17:06:49.864Z,13.70
2019-04-06T17:09:27.042Z,13.70
2019-04-06T17:12:12.097Z,13.70
2019-04-06T17:14:43.652Z,13.60
2019-04-06T17:17:11.958Z,13.60
2019-04-06T17:19:43.682Z,13.60
2019-04-06T17:22:11.745Z,13.60
2019-04-06T17:24:56.258Z,13.50
2019-04-06T17:27:24.483Z,13.50
2019-04-06T17:29:52.638Z,13.40
2019-04-06T17:32:36.983Z,13.40
2019-04-06T17:35:11.461Z,13.40
2019-04-06T17:37:47.708Z,13.30
2019-04-06T17:40:25.410Z,13.30
2019-04-06T17:42:53.797Z,13.30
2019-04-06T17:45:27.795Z,13.20
2019-04-06T17:48:08.126Z,13.10
2019-04-06T17:50:39.019Z,13.10
2019-04-06T17:53:07.230Z,13.10
2019-04-06T17:55:38.223Z,13.00
2019-04-06T17:58:14.214Z,12.90
2019-04-06T18:00:58.689Z,12.90
2019-04-06T18:03:35.602Z,12.80
2019-04-06T18:06:15.774Z,12.70
2019-04-06T18:08:44.001Z,12.60
2019-04-06T18:11:18.214Z,12.60
2019-04-06T18:13:51.037Z,12.50
2019-04-06T18:16:19.715Z,12.40
2019-04-06T18:18:46.259Z,12.40
2019-04-06T18:21:12.658Z,12.20
2019-04-06T18:23:39.298Z,12.20
2019-04-06T18:26:05.770Z,12.10
2019-04-06T18:28:32.120Z,12.10
2019-04-06T18:31:00.373Z,12.00
2019-04-06T18:33:28.507Z,11.80
2019-04-06T18:35:55.105Z,11.80
2019-04-06T18:38:29.068Z,11.60
2019-04-06T18:40:55.765Z,11.60
2019-04-06T18:43:24.080Z,11.50
2019-04-06T18:45:50.448Z,11.40
2019-04-06T18:48:19.150Z,11.40
2019-04-06T18:50:45.451Z,11.30
2019-04-06T18:53:11.681Z,11.10
2019-04-06T18:55:37.960Z,11.00
2019-04-06T18:58:12.233Z,10.90
2019-04-06T19:00:34.585Z,10.90
2019-04-06T19:03:12.751Z,10.80
2019-04-06T19:05:29.121Z,10.70
2019-04-06T19:07:55.509Z,10.70
2019-04-06T19:10:22.056Z,10.60
2019-04-06T19:12:48.494Z,10.60
2019-04-06T19:15:14.951Z,10.50
2019-04-06T19:17:41.115Z,10.40
2019-04-06T19:20:07.943Z,10.30
2019-04-06T19:22:34.397Z,10.30
2019-04-06T19:25:01.205Z,10.20
2019-04-06T19:27:27.514Z,10.10
2019-04-06T19:29:54.174Z,10.00
2019-04-06T19:32:21.311Z,9.90
2019-04-06T19:34:48.188Z,9.80
2019-04-06T19:37:14.785Z,9.80
2019-04-06T19:39:41.154Z,9.80
2019-04-06T19:42:07.529Z,9.70
2019-04-06T19:44:34.170Z,9.70
2019-04-06T19:47:00.874Z,9.60
2019-04-06T19:49:27.466Z,9.50
2019-04-06T19:51:53.737Z,9.40
2019-04-06T19:54:20.075Z,9.40
2019-04-06T19:56:46.536Z,9.30
2019-04-06T19:59:13.671Z,9.30
2019-04-06T20:01:40.105Z,9.20
2019-04-06T20:04:06.869Z,9.10
2019-04-06T20:06:33.086Z,9.00
2019-04-06T20:08:59.886Z,8.90
2019-04-06T20:11:27.391Z,8.90
2019-04-06T20:13:54.346Z,8.70
2019-04-06T20:16:20.634Z,8.70
2019-04-06T20:18:46.911Z,8.70
2019-04-06T20:21:13.150Z,8.70
2019-04-06T20:23:39.397Z,8.60
2019-04-06T20:26:06.278Z,8.60
2019-04-06T20:28:32.478Z,8.50
2019-04-06T20:30:58.789Z,8.50
2019-04-06T20:33:25.790Z,8.40
2019-04-06T20:35:52.268Z,8.30
2019-04-06T20:38:18.575Z,8.30
2019-04-06T20:40:44.811Z,8.30
2019-04-06T20:43:11.177Z,8.20
2019-04-06T20:45:37.697Z,8.20
2019-04-06T20:48:03.874Z,8.10
2019-04-06T20:50:30.051Z,8.00
2019-04-06T20:52:56.174Z,8.00
2019-04-06T20:55:22.443Z,7.90
2019-04-06T20:57:48.682Z,7.90
2019-04-06T21:00:15.313Z,7.90
2019-04-06T21:02:41.596Z,7.80
2019-04-06T21:05:08.151Z,7.90
2019-04-06T21:07:34.489Z,7.80
2019-04-06T21:10:00.842Z,7.80
2019-04-06T21:12:27.474Z,7.80
2019-04-06T21:14:54.411Z,7.70
2019-04-06T21:17:20.604Z,7.70
2019-04-06T21:19:47.091Z,7.60
2019-04-06T21:22:13.478Z,7.50
2019-04-06T21:24:39.708Z,7.40
2019-04-06T21:27:05.927Z,7.30
2019-04-06T21:29:32.336Z,7.30
2019-04-06T21:31:58.614Z,7.20
2019-04-06T21:34:24.859Z,7.20
2019-04-06T21:36:51.172Z,7.10
2019-04-06T21:39:17.681Z,7.10
2019-04-06T21:41:43.983Z,7.10
2019-04-06T21:44:10.385Z,7.10
2019-04-06T21:46:37.025Z,7.10
2019-04-06T21:49:03.550Z,7.00
2019-04-06T21:51:30.060Z,7.00
2019-04-06T21:53:56.322Z,6.90
2019-04-06T21:56:22.552Z,6.80
2019-04-06T21:58:49.074Z,6.80
2019-04-06T22:01:15.783Z,6.70
2019-04-06T22:03:42.211Z,6.70
2019-04-06T22:06:09.115Z,6.60
2019-04-06T22:08:36.140Z,6.60
2019-04-06T22:11:02.730Z,6.50
2019-04-06T22:13:29.949Z,6.40
2019-04-06T22:15:56.238Z,6.40
2019-04-06T22:18:22.594Z,6.50
2019-04-06T22:20:49.077Z,6.50
2019-04-06T22:23:15.359Z,6.40
2019-04-06T22:25:41.742Z,6.40
2019-04-06T22:28:08.656Z,6.40
2019-04-06T22:30:35.023Z,6.30
2019-04-06T22:33:01.772Z,6.30
2019-04-06T22:35:28.408Z,6.30
2019-04-06T22:37:56.126Z,6.20
2019-04-06T22:40:22.646Z,6.20
2019-04-06T22:42:48.863Z,6.20
2019-04-06T22:45:17.485Z,6.20
2019-04-06T22:47:43.861Z,6.00
2019-04-06T22:50:10.692Z,5.90
2019-04-06T22:52:37.182Z,5.80
2019-04-06T22:55:07.595Z,5.80
2019-04-06T22:57:34.568Z,5.80
2019-04-06T23:00:01.002Z,5.70
2019-04-06T23:02:29.265Z,5.70
2019-04-06T23:05:03.835Z,5.70
2019-04-06T23:07:30.162Z,5.70
2019-04-06T23:09:56.450Z,5.70
2019-04-06T23:12:24.658Z,5.60
2019-04-06T23:14:51.174Z,5.60
2019-04-06T23:17:18.009Z,5.60
2019-04-06T23:19:44.339Z,5.60
2019-04-06T23:22:10.612Z,5.50
2019-04-06T23:24:37.442Z,5.40
2019-04-06T23:27:03.808Z,5.40
2019-04-06T23:29:30.316Z,5.30
2019-04-06T23:31:56.588Z,5.30
2019-04-06T23:34:23.573Z,5.30
2019-04-06T23:36:50.033Z,5.30
2019-04-06T23:39:16.311Z,5.20
2019-04-06T23:41:42.760Z,5.20
2019-04-06T23:44:09.088Z,5.10
2019-04-06T23:46:35.329Z,5.00
2019-04-06T23:49:02.583Z,4.90
2019-04-06T23:51:29.301Z,4.90
2019-04-06T23:53:56.213Z,4.80
2019-04-06T23:56:22.401Z,4.80
2019-04-06T23:58:48.892Z,4.80
